Time;durP1;ratioP1;P1;durP2;ratioP2;P2;SDS_P1;SDS_P2;PMS_P1;PMS_P2;Temp;Humidity;BMP_temperature;BMP_pressure;BME280_temperature;BME280_humidity;BME280_pressure;Samples;Min_cycle;Max_cycle;Signal;HPM_P1;HPM_P2
2022/07/31 00:01:54;;;;;;;4.13;2.42;;;;;;;;;;5070128;28;20031;-74
2022/07/31 00:04:39;;;;;;;5.28;2.80;;;;;;;;;;5088410;28;20390;-76
2022/07/31 00:07:25;;;;;;;5.38;3.03;;;;;;;;;;5083919;28;20028;-73
2022/07/31 00:10:10;;;;;;;4.50;2.60;;;;;;;;;;5090011;28;20052;-76
2022/07/31 00:12:56;;;;;;;5.22;2.70;;;;;;;;;;5071421;28;20493;-73
2022/07/31 00:15:42;;;;;;;4.97;2.92;;;;;;;;;;5079640;27;20020;-75
2022/07/31 00:18:27;;;;;;;4.10;2.50;;;;;;;;;;5068774;28;20034;-73
2022/07/31 00:21:13;;;;;;;3.53;2.60;;;;;;;;;;5072929;28;20171;-75
2022/07/31 00:23:58;;;;;;;3.85;2.42;;;;;;;;;;5061612;28;20056;-74
2022/07/31 00:26:44;;;;;;;5.35;2.70;;;;;;;;;;5089896;28;20088;-74
2022/07/31 00:29:30;;;;;;;5.47;2.90;;;;;;;;;;5075166;28;20506;-73
2022/07/31 00:32:15;;;;;;;4.00;2.70;;;;;;;;;;5071348;28;20547;-74
2022/07/31 00:35:01;;;;;;;6.30;2.88;;;;;;;;;;5072032;28;20491;-73
2022/07/31 00:37:47;;;;;;;5.13;2.90;;;;;;;;;;5085554;28;20096;-74
2022/07/31 00:40:32;;;;;;;4.63;2.70;;;;;;;;;;5084395;28;20074;-73
2022/07/31 00:43:18;;;;;;;3.63;2.50;;;;;;;;;;5074721;28;20499;-76
2022/07/31 00:46:03;;;;;;;3.53;2.67;;;;;;;;;;5067123;28;20029;-74
2022/07/31 00:48:49;;;;;;;4.35;2.70;;;;;;;;;;5087895;28;20027;-75
2022/07/31 00:51:35;;;;;;;6.38;2.35;;;;;;;;;;5076283;28;20031;-75
2022/07/31 00:54:21;;;;;;;6.40;3.30;;;;;;;;;;5072877;28;20048;-75
2022/07/31 00:57:06;;;;;;;4.75;2.63;;;;;;;;;;5089107;28;20019;-74
2022/07/31 00:59:52;;;;;;;4.53;2.60;;;;;;;;;;5097821;28;20386;-73
2022/07/31 01:02:38;;;;;;;4.20;2.45;;;;;;;;;;5078556;28;20483;-75
2022/07/31 01:05:23;;;;;;;4.38;2.85;;;;;;;;;;5081340;28;20114;-81
2022/07/31 01:08:09;;;;;;;3.72;2.50;;;;;;;;;;5059562;28;20036;-82
2022/07/31 01:10:57;;;;;;;5.22;2.70;;;;;;;;;;5064932;28;20055;-82
2022/07/31 01:13:56;;;;;;;4.00;2.72;;;;;;;;;;5071655;28;20401;-83
2022/07/31 01:16:45;;;;;;;5.03;2.90;;;;;;;;;;5076033;28;20036;-82
2022/07/31 01:19:39;;;;;;;4.30;2.67;;;;;;;;;;5067380;28;20459;-83
2022/07/31 01:22:25;;;;;;;5.97;2.97;;;;;;;;;;5062409;28;20040;-75
2022/07/31 01:25:19;;;;;;;5.55;2.40;;;;;;;;;;5079038;28;20493;-73
2022/07/31 01:28:08;;;;;;;4.35;2.83;;;;;;;;;;5077109;28;20177;-74
2022/07/31 01:30:57;;;;;;;3.50;2.70;;;;;;;;;;5100307;28;20063;-74
2022/07/31 01:33:51;;;;;;;6.82;2.75;;;;;;;;;;5094229;27;20483;-73
2022/07/31 01:36:40;;;;;;;3.70;2.63;;;;;;;;;;5080897;28;20433;-75
2022/07/31 01:39:26;;;;;;;;;;;;;;;;;;5091763;28;20020;-73
2022/07/31 01:42:13;;;;;;;4.13;2.67;;;;;;;;;;5102920;28;20381;-75
2022/07/31 01:44:59;;;;;;;4.50;2.80;;;;;;;;;;5060040;28;20024;-74
2022/07/31 01:47:46;;;;;;;4.50;2.60;;;;;;;;;;5074402;28;20028;-75
2022/07/31 01:50:32;;;;;;;3.90;2.65;;;;;;;;;;5080898;28;20127;-73
2022/07/31 01:53:21;;;;;;;4.53;3.08;;;;;;;;;;5087800;28;20039;-73
2022/07/31 01:56:07;;;;;;;5.82;2.67;;;;;;;;;;5069979;28;20113;-74
2022/07/31 01:58:53;;;;;;;3.88;2.25;;;;;;;;;;5080234;28;20399;-80
2022/07/31 02:01:39;;;;;;;3.40;2.35;;;;;;;;;;5075309;28;20028;-73
2022/07/31 02:04:25;;;;;;;3.85;2.85;;;;;;;;;;5074647;28;20021;-74
2022/07/31 02:07:10;;;;;;;4.90;2.85;;;;;;;;;;5087230;28;20051;-74
2022/07/31 02:09:57;;;;;;;3.90;2.47;;;;;;;;;;5081450;28;20025;-73
2022/07/31 02:12:43;;;;;;;4.97;2.95;;;;;;;;;;5089973;28;20032;-74
2022/07/31 02:15:29;;;;;;;4.28;2.58;;;;;;;;;;5079203;28;20020;-73
2022/07/31 02:18:15;;;;;;;4.32;3.10;;;;;;;;;;5086799;28;20434;-79
2022/07/31 02:21:01;;;;;;;5.30;3.13;;;;;;;;;;5074823;28;20099;-75
2022/07/31 02:23:46;;;;;;;8.52;2.97;;;;;;;;;;5086363;28;20053;-74
2022/07/31 02:26:33;;;;;;;5.50;2.67;;;;;;;;;;5078719;28;20107;-72
2022/07/31 02:29:19;;;;;;;6.32;3.58;;;;;;;;;;5068963;28;20020;-72
2022/07/31 02:32:05;;;;;;;4.35;2.55;;;;;;;;;;5084830;28;20016;-73
2022/07/31 02:34:55;;;;;;;5.97;2.90;;;;;;;;;;5078585;28;20038;-74
2022/07/31 02:37:41;;;;;;;;;;;;;;;;;;5097095;28;20020;-74
2022/07/31 02:40:27;;;;;;;6.63;3.33;;;;;;;;;;5088750;28;19911;-84
2022/07/31 02:43:13;;;;;;;5.65;2.95;;;;;;;;;;5070157;28;20050;-84
2022/07/31 02:46:00;;;;;;;3.33;2.60;;;;;;;;;;5060876;28;20028;-84
2022/07/31 02:48:46;;;;;;;4.50;3.17;;;;;;;;;;5077285;28;20383;-82
2022/07/31 02:51:32;;;;;;;6.35;3.10;;;;;;;;;;5087529;28;20078;-82
2022/07/31 02:54:17;;;;;;;4.20;3.38;;;;;;;;;;5081332;28;20089;-74
2022/07/31 02:57:03;;;;;;;4.78;2.78;;;;;;;;;;5084462;28;20110;-80
2022/07/31 02:59:49;;;;;;;6.78;3.72;;;;;;;;;;5063482;28;20515;-80
2022/07/31 03:02:34;;;;;;;5.78;3.40;;;;;;;;;;5086534;28;20559;-80
2022/07/31 03:05:20;;;;;;;4.43;2.80;;;;;;;;;;5089579;28;20038;-80
2022/07/31 03:08:06;;;;;;;5.13;2.92;;;;;;;;;;5082198;28;20493;-79
2022/07/31 03:10:51;;;;;;;5.05;3.08;;;;;;;;;;5074794;28;20028;-79
2022/07/31 03:13:37;;;;;;;7.30;3.17;;;;;;;;;;5070991;28;20032;-73
2022/07/31 03:16:25;;;;;;;3.75;2.75;;;;;;;;;;5095242;28;20020;-73
2022/07/31 03:19:11;;;;;;;4.72;3.13;;;;;;;;;;5072974;28;20060;-75
2022/07/31 03:21:58;;;;;;;5.15;3.28;;;;;;;;;;5073103;28;20032;-74
2022/07/31 03:24:43;;;;;;;4.80;3.05;;;;;;;;;;5069911;28;20555;-74
2022/07/31 03:27:29;;;;;;;4.15;3.28;;;;;;;;;;5080675;28;20042;-73
2022/07/31 03:30:17;;;;;;;4.78;2.90;;;;;;;;;;5084527;28;20030;-74
2022/07/31 03:33:02;;;;;;;5.70;3.35;;;;;;;;;;5078017;28;20123;-73
2022/07/31 03:35:48;;;;;;;4.15;3.28;;;;;;;;;;5087329;28;20050;-74
2022/07/31 03:38:34;;;;;;;7.93;2.90;;;;;;;;;;5088247;28;20028;-74
2022/07/31 03:41:20;;;;;;;5.03;3.20;;;;;;;;;;5070031;28;20054;-74
2022/07/31 03:44:06;;;;;;;8.60;3.17;;;;;;;;;;5091951;28;20527;-74
2022/07/31 03:46:52;;;;;;;4.28;3.00;;;;;;;;;;5091018;27;20036;-75
2022/07/31 03:49:38;;;;;;;5.40;4.20;;;;;;;;;;5060359;28;20048;-79
2022/07/31 03:52:24;;;;;;;3.78;2.70;;;;;;;;;;5081450;28;20021;-75
2022/07/31 03:55:09;;;;;;;8.20;3.42;;;;;;;;;;5076977;28;20043;-75
2022/07/31 03:57:56;;;;;;;4.35;2.97;;;;;;;;;;5091183;28;20491;-75
2022/07/31 04:00:42;;;;;;;6.47;3.45;;;;;;;;;;5070646;28;20455;-75
2022/07/31 04:03:29;;;;;;;4.10;2.90;;;;;;;;;;5085571;28;20032;-75
2022/07/31 04:06:15;;;;;;;8.27;3.75;;;;;;;;;;5076484;28;20111;-75
2022/07/31 04:09:00;;;;;;;3.58;2.70;;;;;;;;;;5081658;28;20043;-73
2022/07/31 04:11:46;;;;;;;5.82;3.75;;;;;;;;;;5074639;28;20441;-74
2022/07/31 04:14:31;;;;;;;5.75;3.72;;;;;;;;;;5090275;28;20036;-74
2022/07/31 04:17:17;;;;;;;4.43;2.90;;;;;;;;;;5090650;28;20073;-73
2022/07/31 04:20:03;;;;;;;8.00;3.60;;;;;;;;;;5094532;28;20020;-75
2022/07/31 04:22:49;;;;;;;4.75;3.30;;;;;;;;;;5091003;28;20012;-75
2022/07/31 04:25:34;;;;;;;4.15;3.03;;;;;;;;;;5074621;28;20027;-75
2022/07/31 04:28:20;;;;;;;3.90;3.28;;;;;;;;;;5057706;28;20051;-74
2022/07/31 04:31:05;;;;;;;3.78;3.17;;;;;;;;;;5066629;28;20021;-73
2022/07/31 04:33:51;;;;;;;5.15;3.50;;;;;;;;;;5080367;28;20059;-74
2022/07/31 04:36:37;;;;;;;5.32;3.42;;;;;;;;;;5073145;28;20012;-74
2022/07/31 04:39:22;;;;;;;4.45;3.20;;;;;;;;;;5058491;28;20043;-74
2022/07/31 04:42:08;;;;;;;6.18;3.53;;;;;;;;;;5076846;28;20656;-74
2022/07/31 04:44:54;;;;;;;6.43;3.80;;;;;;;;;;5088386;28;20507;-74
2022/07/31 04:47:39;;;;;;;5.70;3.35;;;;;;;;;;5074036;28;20035;-73
2022/07/31 04:50:26;;;;;;;6.57;3.63;;;;;;;;;;5081081;28;20048;-73
2022/07/31 04:53:11;;;;;;;6.72;3.70;;;;;;;;;;5077169;28;20178;-73
2022/07/31 04:59:20;;;;;;;7.82;3.03;;;;;;;;;;5059926;28;20066;-74
2022/07/31 05:02:05;;;;;;;5.18;3.10;;;;;;;;;;5092962;28;20019;-74
2022/07/31 05:04:51;;;;;;;5.50;3.30;;;;;;;;;;5065729;28;20063;-75
2022/07/31 05:07:36;;;;;;;6.20;3.28;;;;;;;;;;5062756;28;20028;-73
2022/07/31 05:13:26;;;;;;;3.95;2.90;;;;;;;;;;5086231;28;20024;-78
2022/07/31 05:16:12;;;;;;;4.18;3.40;;;;;;;;;;5092350;28;20413;-75
2022/07/31 05:18:58;;;;;;;6.78;3.17;;;;;;;;;;5078105;28;20102;-75
2022/07/31 05:21:44;;;;;;;5.22;3.28;;;;;;;;;;5096707;28;20016;-84
2022/07/31 05:24:30;;;;;;;4.97;3.42;;;;;;;;;;5075262;28;20458;-85
2022/07/31 05:27:15;;;;;;;5.30;3.28;;;;;;;;;;5076584;28;20020;-87
2022/07/31 05:30:01;;;;;;;7.47;3.22;;;;;;;;;;5083517;28;20533;-83
2022/07/31 05:32:47;;;;;;;12.25;3.20;;;;;;;;;;5077737;28;20497;-84
2022/07/31 05:35:32;;;;;;;3.78;3.08;;;;;;;;;;5080955;28;20023;-85
2022/07/31 05:38:18;;;;;;;7.78;3.42;;;;;;;;;;5075720;28;20031;-86
2022/07/31 05:41:04;;;;;;;6.63;3.47;;;;;;;;;;5067247;28;20012;-75
2022/07/31 05:43:49;;;;;;;3.92;2.90;;;;;;;;;;5079171;28;20104;-75
2022/07/31 05:46:35;;;;;;;4.78;3.25;;;;;;;;;;5078092;28;20028;-75
2022/07/31 05:49:21;;;;;;;4.88;2.78;;;;;;;;;;5064436;28;20032;-75
2022/07/31 05:52:06;;;;;;;8.50;3.13;;;;;;;;;;5085642;28;20032;-77
2022/07/31 05:54:52;;;;;;;4.57;3.15;;;;;;;;;;5090794;28;20117;-75
2022/07/31 05:57:37;;;;;;;4.78;3.05;;;;;;;;;;5083287;28;20020;-76
2022/07/31 06:00:23;;;;;;;3.83;2.75;;;;;;;;;;5079530;28;20028;-76
2022/07/31 06:03:10;;;;;;;5.15;2.50;;;;;;;;;;5091271;28;20032;-75
2022/07/31 06:05:56;;;;;;;5.25;3.10;;;;;;;;;;5067417;28;20039;-76
2022/07/31 06:08:42;;;;;;;5.20;2.78;;;;;;;;;;5080123;28;20016;-75
2022/07/31 06:11:27;;;;;;;3.13;2.53;;;;;;;;;;5086377;28;20479;-75
2022/07/31 06:14:13;;;;;;;5.13;3.10;;;;;;;;;;5089518;28;20050;-76
2022/07/31 06:16:59;;;;;;;6.35;2.95;;;;;;;;;;5092906;28;20460;-77
2022/07/31 06:19:44;;;;;;;5.07;2.83;;;;;;;;;;5103502;28;20056;-86
2022/07/31 06:22:30;;;;;;;4.10;2.80;;;;;;;;;;5066184;28;20047;-84
2022/07/31 06:25:15;;;;;;;6.25;3.08;;;;;;;;;;5068700;28;20027;-84
2022/07/31 06:28:01;;;;;;;5.63;3.72;;;;;;;;;;5068461;28;20398;-84
2022/07/31 06:30:46;;;;;;;5.25;2.80;;;;;;;;;;5074432;28;20103;-86
2022/07/31 06:33:32;;;;;;;3.97;2.72;;;;;;;;;;5064756;28;20124;-85
2022/07/31 06:36:17;;;;;;;4.95;2.88;;;;;;;;;;5076856;28;20027;-76
2022/07/31 06:39:04;;;;;;;5.53;3.13;;;;;;;;;;5092844;28;20028;-75
2022/07/31 06:41:49;;;;;;;4.85;2.75;;;;;;;;;;5107158;28;20042;-75
2022/07/31 06:44:35;;;;;;;4.90;3.05;;;;;;;;;;5062618;28;20031;-77
2022/07/31 06:47:22;;;;;;;4.75;2.75;;;;;;;;;;5079607;28;20036;-75
2022/07/31 06:50:07;;;;;;;6.40;3.20;;;;;;;;;;5076058;28;20407;-76
2022/07/31 06:52:53;;;;;;;5.20;3.30;;;;;;;;;;5081537;28;20032;-74
2022/07/31 06:55:38;;;;;;;4.32;2.97;;;;;;;;;;5068038;28;20016;-85
2022/07/31 06:58:24;;;;;;;3.72;2.70;;;;;;;;;;5073719;28;20024;-74
2022/07/31 07:01:10;;;;;;;8.38;3.13;;;;;;;;;;5073820;28;20024;-75
2022/07/31 07:03:55;;;;;;;4.10;2.83;;;;;;;;;;5085391;28;20024;-74
2022/07/31 07:06:41;;;;;;;4.32;2.90;;;;;;;;;;5091754;28;20020;-75
2022/07/31 07:09:27;;;;;;;4.43;2.97;;;;;;;;;;5094670;28;20016;-75
2022/07/31 07:12:12;;;;;;;5.75;2.75;;;;;;;;;;5063839;28;20027;-75
2022/07/31 07:14:58;;;;;;;5.40;3.03;;;;;;;;;;5063204;28;20442;-75
2022/07/31 07:17:43;;;;;;;3.83;2.53;;;;;;;;;;5069001;28;20008;-74
2022/07/31 07:20:29;;;;;;;6.03;2.92;;;;;;;;;;5088854;28;20032;-74
2022/07/31 07:23:14;;;;;;;5.00;3.00;;;;;;;;;;5073041;28;20055;-74
2022/07/31 07:26:00;;;;;;;3.85;2.65;;;;;;;;;;5087899;28;20058;-75
2022/07/31 07:28:46;;;;;;;4.65;2.88;;;;;;;;;;5077524;28;20027;-75
2022/07/31 07:31:31;;;;;;;5.82;2.72;;;;;;;;;;5092143;28;20424;-75
2022/07/31 07:34:17;;;;;;;3.58;1.92;;;;;;;;;;5069451;28;20036;-75
2022/07/31 07:37:02;;;;;;;5.82;2.88;;;;;;;;;;5083174;28;20028;-75
2022/07/31 07:39:48;;;;;;;4.80;2.58;;;;;;;;;;5090192;28;20031;-76
2022/07/31 07:42:34;;;;;;;3.92;2.33;;;;;;;;;;5072364;28;20483;-75
2022/07/31 07:45:19;;;;;;;3.88;2.35;;;;;;;;;;5078845;28;20020;-76
2022/07/31 07:48:05;;;;;;;3.78;2.30;;;;;;;;;;5082625;28;20310;-74
2022/07/31 07:50:51;;;;;;;4.90;2.70;;;;;;;;;;5065241;28;20048;-76
2022/07/31 07:53:36;;;;;;;3.88;2.10;;;;;;;;;;5103382;28;20464;-79
2022/07/31 07:56:23;;;;;;;4.40;2.40;;;;;;;;;;5081908;28;20067;-79
2022/07/31 07:59:08;;;;;;;3.90;2.30;;;;;;;;;;5088042;28;20035;-79
2022/07/31 08:01:54;;;;;;;4.10;2.30;;;;;;;;;;5084809;28;20032;-80
2022/07/31 08:04:40;;;;;;;3.55;2.25;;;;;;;;;;5084506;28;20402;-79
2022/07/31 08:07:27;;;;;;;3.70;2.40;;;;;;;;;;5083617;28;20058;-75
2022/07/31 08:10:17;;;;;;;3.50;2.60;;;;;;;;;;5105030;28;20016;-75
2022/07/31 08:13:03;;;;;;;3.80;2.63;;;;;;;;;;5080007;28;20039;-76
2022/07/31 08:15:48;;;;;;;6.93;2.75;;;;;;;;;;5069714;28;20020;-78
2022/07/31 08:18:34;;;;;;;4.20;2.70;;;;;;;;;;5075632;28;20024;-60
2022/07/31 08:21:20;;;;;;;6.18;3.30;;;;;;;;;;5094752;28;20016;-61
2022/07/31 08:24:06;;;;;;;7.47;4.28;;;;;;;;;;5088019;28;20024;-60
2022/07/31 08:29:57;;;;;;;4.25;2.35;;;;;;;;;;5082437;28;20031;-60
2022/07/31 08:32:43;;;;;;;3.90;2.78;;;;;;;;;;5085084;28;20513;-59
2022/07/31 08:35:28;;;;;;;4.43;2.67;;;;;;;;;;5086411;28;20059;-58
2022/07/31 08:38:15;;;;;;;3.60;2.50;;;;;;;;;;5086851;28;20024;-60
2022/07/31 08:41:01;;;;;;;4.05;2.72;;;;;;;;;;5077309;28;20036;-61
2022/07/31 08:43:46;;;;;;;3.53;2.65;;;;;;;;;;5089864;28;20073;-72
2022/07/31 08:46:35;;;;;;;6.70;2.88;;;;;;;;;;5085767;28;20070;-66
2022/07/31 08:49:22;;;;;;;5.47;2.53;;;;;;;;;;5059281;28;20066;-73
2022/07/31 08:52:08;;;;;;;6.75;3.10;;;;;;;;;;5089064;28;20035;-67
2022/07/31 08:54:54;;;;;;;3.60;2.72;;;;;;;;;;5087577;28;20383;-66
2022/07/31 08:57:40;;;;;;;3.53;2.35;;;;;;;;;;5087661;28;20034;-69
2022/07/31 09:00:27;;;;;;;4.47;2.55;;;;;;;;;;5070582;28;20020;-69
2022/07/31 09:03:13;;;;;;;3.50;2.45;;;;;;;;;;5093839;28;20036;-58
2022/07/31 09:05:58;;;;;;;6.78;2.63;;;;;;;;;;5094106;28;20074;-68
2022/07/31 09:08:44;;;;;;;5.38;3.00;;;;;;;;;;5098938;28;20063;-67
2022/07/31 09:11:30;;;;;;;5.25;2.42;;;;;;;;;;5069601;28;20031;-69
2022/07/31 09:14:26;;;;;;;6.97;2.20;;;;;;;;;;5074441;28;20032;-66
2022/07/31 09:17:14;;;;;;;5.13;2.45;;;;;;;;;;5074613;28;20467;-68
2022/07/31 09:20:00;;;;;;;7.20;2.45;;;;;;;;;;5094833;28;20020;-66
2022/07/31 09:22:46;;;;;;;3.83;2.00;;;;;;;;;;5087695;28;20085;-65
2022/07/31 09:25:31;;;;;;;3.53;2.30;;;;;;;;;;5096180;28;20054;-64
2022/07/31 09:28:17;;;;;;;3.63;2.35;;;;;;;;;;5075846;28;20470;-66
2022/07/31 09:31:04;;;;;;;3.63;1.83;;;;;;;;;;5095669;28;20032;-66
2022/07/31 09:33:50;;;;;;;7.10;2.22;;;;;;;;;;5094296;28;20028;-66
2022/07/31 09:36:35;;;;;;;4.55;2.30;;;;;;;;;;5083939;28;20440;-66
2022/07/31 09:39:21;;;;;;;3.83;2.25;;;;;;;;;;5093704;28;20028;-77
2022/07/31 09:42:07;;;;;;;5.47;2.30;;;;;;;;;;5102665;28;20023;-67
2022/07/31 09:44:52;;;;;;;8.75;2.55;;;;;;;;;;5075949;28;20024;-63
2022/07/31 09:47:38;;;;;;;3.10;1.77;;;;;;;;;;5080961;28;20111;-64
2022/07/31 09:50:24;;;;;;;5.38;2.53;;;;;;;;;;5080796;28;20040;-66
2022/07/31 09:53:09;;;;;;;3.45;1.98;;;;;;;;;;5078075;28;20500;-66
2022/07/31 09:55:55;;;;;;;4.45;2.00;;;;;;;;;;5083843;28;20027;-67
2022/07/31 09:58:41;;;;;;;2.72;2.10;;;;;;;;;;5092759;28;20023;-79
2022/07/31 10:01:28;;;;;;;3.25;1.80;;;;;;;;;;5093039;28;20035;-78
2022/07/31 10:04:18;;;;;;;4.40;2.15;;;;;;;;;;5072426;28;20181;-76
2022/07/31 10:07:04;;;;;;;3.42;1.77;;;;;;;;;;5089634;28;20383;-82
2022/07/31 10:09:50;;;;;;;3.35;1.98;;;;;;;;;;5082491;28;20059;-76
2022/07/31 10:12:39;;;;;;;3.45;1.92;;;;;;;;;;5088739;28;20032;-76
2022/07/31 10:15:25;;;;;;;2.63;1.58;;;;;;;;;;5082515;28;20470;-76
2022/07/31 10:18:11;;;;;;;4.82;2.55;;;;;;;;;;5084210;28;20045;-75
2022/07/31 10:20:58;;;;;;;2.90;1.55;;;;;;;;;;5071830;28;20099;-73
2022/07/31 10:23:44;;;;;;;3.15;1.70;;;;;;;;;;5087184;28;20479;-72
2022/07/31 10:26:30;;;;;;;2.85;1.85;;;;;;;;;;5096411;28;20401;-73
2022/07/31 10:29:16;;;;;;;6.50;2.25;;;;;;;;;;5085517;28;20016;-72
2022/07/31 10:32:02;;;;;;;2.03;1.60;;;;;;;;;;5093389;28;20032;-72
2022/07/31 10:34:48;;;;;;;3.03;2.10;;;;;;;;;;5079584;28;20059;-73
2022/07/31 10:37:39;;;;;;;2.58;1.80;;;;;;;;;;5093742;28;20497;-74
2022/07/31 10:40:28;;;;;;;1.88;1.52;;;;;;;;;;5081377;28;20058;-72
2022/07/31 10:43:19;;;;;;;2.97;2.10;;;;;;;;;;5087514;28;20016;-73
2022/07/31 10:46:05;;;;;;;6.22;1.63;;;;;;;;;;5091224;28;20119;-71
2022/07/31 10:48:52;;;;;;;5.15;1.92;;;;;;;;;;5080240;28;20047;-73
2022/07/31 10:51:47;;;;;;;3.08;2.03;;;;;;;;;;5077466;28;20055;-73
2022/07/31 10:54:43;;;;;;;3.85;2.10;;;;;;;;;;5089230;28;20035;-74
2022/07/31 10:57:33;;;;;;;2.85;1.80;;;;;;;;;;5089105;28;20111;-72
2022/07/31 11:00:19;;;;;;;5.53;1.60;;;;;;;;;;5090575;28;20024;-72
2022/07/31 11:03:15;;;;;;;2.67;1.70;;;;;;;;;;5088943;28;20475;-72
2022/07/31 11:06:00;;;;;;;5.45;2.40;;;;;;;;;;5081058;28;20070;-72
2022/07/31 11:08:50;;;;;;;3.75;2.20;;;;;;;;;;5097369;28;20519;-73
2022/07/31 11:11:36;;;;;;;5.07;2.75;;;;;;;;;;5083324;28;20028;-74
2022/07/31 11:14:34;;;;;;;4.18;1.80;;;;;;;;;;5080048;28;20036;-73
2022/07/31 11:17:35;;;;;;;4.45;1.88;;;;;;;;;;5076553;28;20035;-73
2022/07/31 11:20:20;;;;;;;2.92;2.00;;;;;;;;;;5091348;28;20118;-72
2022/07/31 11:23:07;;;;;;;6.05;2.13;;;;;;;;;;5091900;28;20111;-75
2022/07/31 11:25:57;;;;;;;3.90;2.47;;;;;;;;;;5089639;28;20024;-72
2022/07/31 11:28:42;;;;;;;5.38;2.25;;;;;;;;;;5070865;28;20477;-73
2022/07/31 11:31:31;;;;;;;4.45;2.60;;;;;;;;;;5089336;28;20023;-78
2022/07/31 11:34:16;;;;;;;4.20;1.77;;;;;;;;;;5059699;28;20068;-79
2022/07/31 11:37:02;;;;;;;4.00;1.80;;;;;;;;;;5088345;28;20023;-80
2022/07/31 11:39:48;;;;;;;5.80;2.17;;;;;;;;;;5095933;28;20020;-80
2022/07/31 11:42:40;;;;;;;4.38;1.85;;;;;;;;;;5087972;28;20023;-81
2022/07/31 11:45:26;;;;;;;1.92;1.52;;;;;;;;;;5071291;28;20462;-80
2022/07/31 11:48:13;;;;;;;5.20;1.80;;;;;;;;;;5096991;28;20050;-78
2022/07/31 11:51:00;;;;;;;5.53;1.83;;;;;;;;;;5089638;28;20496;-74
2022/07/31 11:53:45;;;;;;;2.13;1.73;;;;;;;;;;5088246;28;20486;-74
2022/07/31 11:56:32;;;;;;;4.43;1.77;;;;;;;;;;5078286;28;20035;-75
2022/07/31 11:59:18;;;;;;;4.30;1.85;;;;;;;;;;5085335;28;20069;-75
2022/07/31 12:02:08;;;;;;;3.17;1.75;;;;;;;;;;5077853;28;20015;-75
2022/07/31 12:04:54;;;;;;;3.67;1.65;;;;;;;;;;5097178;28;20072;-74
2022/07/31 12:07:40;;;;;;;3.10;1.73;;;;;;;;;;5081167;28;20043;-73
2022/07/31 12:10:26;;;;;;;1.77;1.50;;;;;;;;;;5098814;28;20364;-74
2022/07/31 12:13:15;;;;;;;4.40;1.80;;;;;;;;;;5090423;28;20123;-76
2022/07/31 12:16:04;;;;;;;2.65;1.70;;;;;;;;;;5078287;28;20346;-74
2022/07/31 12:18:55;;;;;;;2.92;2.00;;;;;;;;;;5076243;28;20024;-75
2022/07/31 12:21:40;;;;;;;2.75;1.90;;;;;;;;;;5090636;28;20028;-74
2022/07/31 12:24:26;;;;;;;2.85;2.10;;;;;;;;;;5098156;28;20015;-73
2022/07/31 12:27:15;;;;;;;4.75;1.77;;;;;;;;;;5081388;28;20031;-75
2022/07/31 12:30:11;;;;;;;4.63;2.08;;;;;;;;;;5102099;28;20077;-74
2022/07/31 12:33:03;;;;;;;3.55;1.55;;;;;;;;;;5080110;28;20058;-74
2022/07/31 12:35:49;;;;;;;1.90;1.42;;;;;;;;;;5082845;28;20062;-74
2022/07/31 12:38:34;;;;;;;2.75;1.75;;;;;;;;;;5068759;28;20367;-74
2022/07/31 12:41:20;;;;;;;4.07;1.90;;;;;;;;;;5076656;28;20016;-74
2022/07/31 12:44:08;;;;;;;3.90;1.70;;;;;;;;;;5088944;28;20039;-80
2022/07/31 12:46:54;;;;;;;3.57;2.00;;;;;;;;;;5086147;28;20044;-70
2022/07/31 12:49:40;;;;;;;3.20;1.80;;;;;;;;;;5084691;28;20294;-70
2022/07/31 12:52:26;;;;;;;2.17;1.77;;;;;;;;;;5089814;28;20020;-70
2022/07/31 12:55:13;;;;;;;2.72;1.63;;;;;;;;;;5107185;28;20070;-71
2022/07/31 12:57:58;;;;;;;4.10;1.80;;;;;;;;;;5084728;28;20036;-70
2022/07/31 13:00:44;;;;;;;2.00;1.80;;;;;;;;;;5061534;28;20028;-70
2022/07/31 13:03:30;;;;;;;3.25;2.00;;;;;;;;;;5090819;28;20031;-80
2022/07/31 13:06:15;;;;;;;5.55;2.33;;;;;;;;;;5090647;28;20017;-75
2022/07/31 13:09:01;;;;;;;4.00;1.65;;;;;;;;;;5084343;28;20074;-75
2022/07/31 13:11:47;;;;;;;2.35;1.52;;;;;;;;;;5083579;28;20032;-75
2022/07/31 13:14:33;;;;;;;3.15;1.63;;;;;;;;;;5066806;28;20036;-75
2022/07/31 13:17:18;;;;;;;1.85;1.63;;;;;;;;;;5085572;28;20020;-75
2022/07/31 13:20:04;;;;;;;2.80;1.95;;;;;;;;;;5101599;28;20024;-71
2022/07/31 13:22:50;;;;;;;2.00;1.65;;;;;;;;;;5105469;28;20028;-73
2022/07/31 13:25:35;;;;;;;4.50;1.55;;;;;;;;;;5094846;28;20060;-80
2022/07/31 13:28:21;;;;;;;2.47;1.60;;;;;;;;;;5084132;28;20020;-80
2022/07/31 13:31:07;;;;;;;4.35;1.98;;;;;;;;;;5113694;28;20028;-81
2022/07/31 13:33:53;;;;;;;3.75;2.08;;;;;;;;;;5100021;28;20508;-81
2022/07/31 13:36:38;;;;;;;3.88;1.77;;;;;;;;;;5086056;28;20421;-79
2022/07/31 13:39:24;;;;;;;1.75;1.30;;;;;;;;;;5086046;28;20019;-70
2022/07/31 13:42:09;;;;;;;2.38;1.50;;;;;;;;;;5077927;28;20024;-70
2022/07/31 13:44:55;;;;;;;2.85;1.52;;;;;;;;;;5088309;28;20096;-69
2022/07/31 13:47:40;;;;;;;2.42;1.60;;;;;;;;;;5066254;28;20021;-70
2022/07/31 13:50:26;;;;;;;3.28;1.83;;;;;;;;;;5053324;28;20037;-70
2022/07/31 13:53:12;;;;;;;2.28;1.70;;;;;;;;;;5071159;28;20132;-70
2022/07/31 13:55:57;;;;;;;2.72;1.23;;;;;;;;;;5064126;28;20032;-69
2022/07/31 13:58:43;;;;;;;1.67;1.40;;;;;;;;;;5075770;28;20051;-71
2022/07/31 14:01:30;;;;;;;2.22;1.50;;;;;;;;;;5057706;28;20122;-75
2022/07/31 14:04:16;;;;;;;2.25;1.45;;;;;;;;;;5058259;28;20079;-74
2022/07/31 14:07:02;;;;;;;1.83;1.50;;;;;;;;;;5069960;28;20040;-74
2022/07/31 14:09:47;;;;;;;3.50;1.35;;;;;;;;;;5074660;28;20028;-75
2022/07/31 14:12:33;;;;;;;3.50;1.60;;;;;;;;;;5068418;28;20119;-75
2022/07/31 14:15:19;;;;;;;2.00;1.52;;;;;;;;;;5059156;28;20025;-69
2022/07/31 14:18:04;;;;;;;5.22;1.73;;;;;;;;;;5073753;28;20025;-83
2022/07/31 14:20:50;;;;;;;3.22;1.83;;;;;;;;;;5076939;28;20028;-73
2022/07/31 14:23:36;;;;;;;4.15;1.60;;;;;;;;;;5079465;28;20066;-73
2022/07/31 14:26:22;;;;;;;2.20;1.70;;;;;;;;;;5065442;28;20048;-73
2022/07/31 14:29:07;;;;;;;3.50;1.60;;;;;;;;;;5072825;28;20392;-72
2022/07/31 14:31:53;;;;;;;3.40;1.75;;;;;;;;;;5072820;28;20024;-73
2022/07/31 14:34:38;;;;;;;1.88;1.38;;;;;;;;;;5043544;28;20033;-69
2022/07/31 14:37:24;;;;;;;4.75;1.48;;;;;;;;;;5073957;28;20103;-73
2022/07/31 14:40:10;;;;;;;3.92;1.77;;;;;;;;;;5065793;28;20039;-74
2022/07/31 14:42:56;;;;;;;1.25;1.15;;;;;;;;;;5092523;28;20020;-73
2022/07/31 14:45:41;;;;;;;2.38;1.40;;;;;;;;;;5064330;28;20016;-74
2022/07/31 14:48:27;;;;;;;3.92;1.55;;;;;;;;;;5076362;28;20008;-73
2022/07/31 14:51:16;;;;;;;2.40;1.50;;;;;;;;;;5099883;28;20144;-72
2022/07/31 14:54:02;;;;;;;;;;;;;;;;;;5083636;28;20037;-73
2022/07/31 14:56:47;;;;;;;2.20;1.67;;;;;;;;;;5106234;28;19908;-80
2022/07/31 14:59:33;;;;;;;5.80;1.70;;;;;;;;;;5072944;28;20109;-83
2022/07/31 15:02:18;;;;;;;2.72;1.50;;;;;;;;;;5078181;28;20047;-80
2022/07/31 15:05:04;;;;;;;3.92;1.48;;;;;;;;;;5093364;28;20497;-81
2022/07/31 15:07:50;;;;;;;2.08;1.33;;;;;;;;;;5096885;28;20103;-80
2022/07/31 15:10:35;;;;;;;4.88;2.53;;;;;;;;;;5098854;28;20024;-82
2022/07/31 15:13:21;;;;;;;3.70;1.48;;;;;;;;;;5091598;28;20442;-73
2022/07/31 15:16:08;;;;;;;2.72;1.48;;;;;;;;;;5089551;28;20036;-69
2022/07/31 15:18:53;;;;;;;2.30;1.55;;;;;;;;;;5078887;28;20079;-68
2022/07/31 15:21:39;;;;;;;3.72;1.73;;;;;;;;;;5080937;28;20032;-69
2022/07/31 15:24:24;;;;;;;1.80;1.55;;;;;;;;;;5082570;28;20412;-69
2022/07/31 15:27:10;;;;;;;4.28;1.75;;;;;;;;;;5091151;28;20497;-69
2022/07/31 15:29:56;;;;;;;2.90;1.60;;;;;;;;;;5093021;28;20020;-73
2022/07/31 15:32:42;;;;;;;4.40;1.70;;;;;;;;;;5092079;28;20022;-69
2022/07/31 15:35:27;;;;;;;1.55;1.33;;;;;;;;;;5092837;28;20066;-70
2022/07/31 15:38:13;;;;;;;3.63;1.85;;;;;;;;;;5092223;28;20016;-70
2022/07/31 15:40:59;;;;;;;3.03;1.52;;;;;;;;;;5082736;28;20479;-69
2022/07/31 15:43:44;;;;;;;4.20;1.63;;;;;;;;;;5077065;28;20019;-69
2022/07/31 15:46:30;;;;;;;3.42;1.50;;;;;;;;;;5081637;28;20043;-68
2022/07/31 15:49:15;;;;;;;2.72;1.58;;;;;;;;;;5077544;28;20053;-80
2022/07/31 15:52:01;;;;;;;3.13;1.73;;;;;;;;;;5097535;28;20028;-73
2022/07/31 15:54:46;;;;;;;1.90;1.40;;;;;;;;;;5079462;28;20067;-74
2022/07/31 15:57:32;;;;;;;2.50;1.60;;;;;;;;;;5088735;28;20024;-73
2022/07/31 16:00:18;;;;;;;4.80;2.05;;;;;;;;;;5078244;28;20042;-73
2022/07/31 16:03:03;;;;;;;3.72;1.95;;;;;;;;;;5094321;28;20032;-75
2022/07/31 16:05:49;;;;;;;7.70;1.83;;;;;;;;;;5089114;28;20091;-64
2022/07/31 16:08:34;;;;;;;2.13;1.70;;;;;;;;;;5096066;28;20019;-65
2022/07/31 16:11:20;;;;;;;1.58;1.30;;;;;;;;;;5095958;28;20391;-62
2022/07/31 16:14:06;;;;;;;3.35;1.48;;;;;;;;;;5085829;28;20125;-61
2022/07/31 16:16:51;;;;;;;2.25;1.60;;;;;;;;;;5076014;28;20023;-61
2022/07/31 16:19:37;;;;;;;5.28;2.25;;;;;;;;;;5089656;28;20024;-60
2022/07/31 16:22:22;;;;;;;4.22;1.85;;;;;;;;;;5083865;28;20071;-66
2022/07/31 16:25:09;;;;;;;4.13;1.80;;;;;;;;;;5090171;28;20027;-72
2022/07/31 16:27:54;;;;;;;4.18;2.00;;;;;;;;;;5079560;28;20089;-65
2022/07/31 16:30:41;;;;;;;6.15;2.20;;;;;;;;;;5083489;28;20048;-65
2022/07/31 16:33:26;;;;;;;3.85;1.98;;;;;;;;;;5087351;28;20059;-64
2022/07/31 16:36:12;;;;;;;3.33;2.20;;;;;;;;;;5071977;28;20139;-64
2022/07/31 16:38:57;;;;;;;4.57;2.40;;;;;;;;;;5090408;28;20064;-64
2022/07/31 16:41:43;;;;;;;2.75;1.98;;;;;;;;;;5076222;28;20087;-65
2022/07/31 16:44:29;;;;;;;5.30;2.10;;;;;;;;;;5091318;28;20020;-64
2022/07/31 16:47:14;;;;;;;2.92;2.00;;;;;;;;;;5088897;28;20032;-58